Time;durP1;ratioP1;P1;durP2;ratioP2;P2;SDS_P1;SDS_P2;PMS_P1;PMS_P2;Temp;Humidity;BMP_temperature;BMP_pressure;BME280_temperature;BME280_humidity;BME280_pressure;Samples;Min_cycle;Max_cycle;Signal;HPM_P1;HPM_P2
2022/03/05 00:01:24;;;;;;;;;;;;;;;-1.66;78.29;99216.98;1668690;86;21839;-65
2022/03/05 00:03:51;;;;;;;;;;;;;;;-1.67;77.91;99218.03;1668410;86;20149;-65
2022/03/05 00:06:18;;;;;;;;;;;;;;;-1.70;77.38;99213.67;1668501;86;20129;-64
2022/03/05 00:08:46;;;;;;;;;;;;;;;-1.70;77.84;99218.52;1668433;86;20138;-65
2022/03/05 00:11:14;;;;;;;;;;;;;;;-1.69;77.75;99213.95;1668458;86;20150;-64
2022/03/05 00:13:41;;;;;;;;;;;;;;;-1.70;77.98;99219.05;1668502;86;21272;-64
2022/03/05 00:16:09;;;;;;;;;;;;;;;-1.69;78.19;99221.50;1705576;82;20121;-64
2022/03/05 00:18:36;;;;;;;;;;;;;;;-1.68;77.99;99220.97;1751740;82;20417;-65
2022/03/05 00:21:03;;;;;;;;;;;;;;;-1.66;77.98;99222.36;1762111;81;20622;-65
2022/03/05 00:23:30;;;;;;;;;;;;;;;-1.68;77.12;99225.82;1751843;80;20174;-64
2022/03/05 00:25:58;;;;;;;;;;;;;;;-1.68;77.45;99219.62;1762088;81;20732;-64
2022/03/05 00:28:25;;;;;;;;;;;;;;;-1.69;77.28;99215.30;1751829;82;20099;-65
2022/03/05 00:30:58;;;;;;;;;;;;;;;-1.69;77.65;99223.37;1751861;82;20134;-65
2022/03/05 00:33:21;;;;;;;;;;;;;;;-1.70;77.81;99218.52;1751768;81;20647;-65
2022/03/05 00:35:49;;;;;;;;;;;;;;;-1.67;78.10;99222.60;1762103;81;20142;-64
2022/03/05 00:38:15;;;;;;;;;;;;;;;-1.64;78.08;99221.30;1751977;82;21083;-65
2022/03/05 00:40:44;;;;;;;;;;;;;;;-1.65;78.07;99220.48;1761964;81;20195;-65
2022/03/05 00:43:10;;;;;;;;;;;;;;;-1.64;77.89;99220.77;1752012;82;20103;-65
2022/03/05 00:45:37;;;;;;;;;;;;;;;-1.63;77.99;99224.28;1751684;82;20686;-65
2022/03/05 00:48:05;;;;;;;;;;;;;;;-1.65;78.00;99223.17;1762331;81;20134;-65
2022/03/05 00:50:32;;;;;;;;;;;;;;;-1.65;78.00;99212.41;1761864;81;21132;-67
2022/03/05 00:52:59;;;;;;;;;;;;;;;-1.66;77.76;99218.85;1751920;80;20127;-65
2022/03/05 00:55:25;;;;;;;;;;;;;;;-1.65;78.16;99213.75;1751189;82;20201;-64
2022/03/05 00:57:52;;;;;;;;;;;;;;;-1.62;77.89;99213.27;1761437;81;20125;-64
2022/03/05 01:00:19;;;;;;;;;;;;;;;-1.62;77.37;99216.48;1751811;82;20492;-64
2022/03/05 01:02:46;;;;;;;;;;;;;;;-1.62;77.41;99215.95;1762322;81;21197;-65
2022/03/05 01:05:13;;;;;;;;;;;;;;;-1.62;77.37;99214.61;1729371;81;20150;-65
2022/03/05 01:07:40;;;;;;;;;;;;;;;-1.64;77.22;99222.11;1706519;83;20147;-65
2022/03/05 01:10:08;;;;;;;;;;;;;;;-1.66;77.12;99212.12;1697275;84;20195;-65
2022/03/05 01:12:35;;;;;;;;;;;;;;;-1.65;77.17;99217.79;1697490;84;20198;-65
2022/03/05 01:15:03;;;;;;;;;;;;;;;-1.64;77.53;99215.92;1705797;82;21140;-64
2022/03/05 01:17:31;;;;;;;;;;;;;;;-1.62;77.47;99211.11;1751851;81;20553;-65
2022/03/05 01:19:58;;;;;;;;;;;;;;;-1.60;77.23;99224.61;1748183;82;20125;-64
2022/03/05 01:22:25;;;;;;;;;;;;;;;-1.60;77.32;99218.41;1764373;81;20188;-65
2022/03/05 01:24:52;;;;;;;;;;;;;;;-1.60;77.15;99221.91;1761448;81;20161;-65
2022/03/05 01:27:22;;;;;;;;;;;;;;;-1.62;77.17;99213.27;1748239;82;22045;-65
2022/03/05 01:29:49;;;;;;;;;;;;;;;-1.59;77.20;99217.34;1764245;81;20185;-65
2022/03/05 01:32:16;;;;;;;;;;;;;;;-1.58;77.27;99217.63;1761440;81;20129;-64
2022/03/05 01:34:44;;;;;;;;;;;;;;;-1.57;77.52;99220.08;1748270;82;20189;-65
2022/03/05 01:37:11;;;;;;;;;;;;;;;-1.55;77.55;99222.00;1764302;81;20355;-65
2022/03/05 01:39:38;;;;;;;;;;;;;;;-1.56;77.47;99216.33;1761248;81;21757;-65
2022/03/05 01:42:06;;;;;;;;;;;;;;;-1.55;77.46;99225.22;1761308;81;20156;-66
2022/03/05 01:44:33;;;;;;;;;;;;;;;-1.56;77.38;99223.05;1761421;81;20197;-69
2022/03/05 01:47:03;;;;;;;;;;;;;;;-1.58;77.43;99224.36;1748274;82;20212;-69
2022/03/05 01:49:31;;;;;;;;;;;;;;;-1.57;77.59;99224.65;1764519;81;20194;-69
2022/03/05 01:51:57;;;;;;;;;;;;;;;-1.56;77.55;99225.75;1761384;81;21226;-69
2022/03/05 01:54:25;;;;;;;;;;;;;;;-1.54;77.95;99220.94;1748495;82;20125;-66
2022/03/05 01:56:52;;;;;;;;;;;;;;;-1.53;77.98;99223.09;1764451;81;20140;-66
2022/03/05 01:59:19;;;;;;;;;;;;;;;-1.54;77.97;99220.94;1764628;81;20526;-67
2022/03/05 02:01:46;;;;;;;;;;;;;;;-1.53;77.79;99221.75;1764249;81;20204;-66
2022/03/05 02:04:13;;;;;;;;;;;;;;;-1.54;77.74;99219.59;1761711;81;21866;-66
2022/03/05 02:06:39;;;;;;;;;;;;;;;-1.53;77.65;99218.53;1748104;82;20206;-66
2022/03/05 02:09:07;;;;;;;;;;;;;;;-1.55;77.57;99217.96;1764367;81;20616;-67
2022/03/05 02:11:34;;;;;;;;;;;;;;;-1.53;77.79;99220.41;1761505;81;20200;-68
2022/03/05 02:14:02;;;;;;;;;;;;;;;-1.52;78.10;99222.03;1761363;81;20212;-68
2022/03/05 02:16:29;;;;;;;;;;;;;;;-1.50;78.70;99218.57;1747987;80;21401;-68
2022/03/05 02:18:56;;;;;;;;;;;;;;;-1.51;78.28;99223.14;1756792;80;20141;-68
2022/03/05 02:21:25;;;;;;;;;;;;;;;-1.51;78.33;99230.41;1746100;82;20309;-68
2022/03/05 02:23:52;;;;;;;;;;;;;;;-1.52;78.34;99224.73;1746491;82;20587;-68
2022/03/05 02:26:19;;;;;;;;;;;;;;;-1.54;78.54;99223.63;1746183;81;20174;-68
2022/03/05 02:28:45;;;;;;;;;;;;;;;-1.53;78.47;99224.44;1756659;81;21186;-67
2022/03/05 02:31:12;;;;;;;;;;;;;;;-1.55;78.65;99223.34;1756482;81;20106;-68
2022/03/05 02:33:39;;;;;;;;;;;;;;;-1.55;79.08;99223.34;1756682;81;20109;-67
2022/03/05 02:36:07;;;;;;;;;;;;;;;-1.53;79.40;99223.91;1756435;81;20161;-68
2022/03/05 02:38:34;;;;;;;;;;;;;;;-1.52;79.28;99226.08;1756552;81;20199;-68
2022/03/05 02:41:01;;;;;;;;;;;;;;;-1.50;79.15;99229.34;1756418;81;21201;-68
2022/03/05 02:43:28;;;;;;;;;;;;;;;-1.51;79.14;99226.36;1756324;81;20137;-68
2022/03/05 02:45:55;;;;;;;;;;;;;;;-1.50;79.13;99229.34;1756530;81;20168;-66
2022/03/05 02:48:22;;;;;;;;;;;;;;;-1.52;79.08;99228.23;1756480;81;20232;-65
2022/03/05 02:50:49;;;;;;;;;;;;;;;-1.51;78.87;99232.56;1756421;81;20208;-65
2022/03/05 02:53:16;;;;;;;;;;;;;;;-1.51;79.25;99235.78;1756468;81;21102;-66
2022/03/05 02:55:44;;;;;;;;;;;;;;;-1.48;79.59;99236.64;1756630;81;20180;-66
2022/03/05 02:58:11;;;;;;;;;;;;;;;-1.47;79.26;99235.58;1756383;81;20176;-66
2022/03/05 03:00:37;;;;;;;;;;;;;;;-1.48;79.05;99233.42;1742008;80;20203;-66
2022/03/05 03:03:04;;;;;;;;;;;;;;;-1.48;79.10;99233.42;1727693;83;20424;-65
2022/03/05 03:05:32;;;;;;;;;;;;;;;-1.48;79.08;99230.73;1671550;86;21217;-65
2022/03/05 03:07:59;;;;;;;;;;;;;;;-1.48;79.18;99229.91;1701311;83;20977;-65
2022/03/05 03:10:26;;;;;;;;;;;;;;;-1.46;79.25;99235.87;1707091;84;20163;-65
2022/03/05 03:12:53;;;;;;;;;;;;;;;-1.45;79.50;99237.50;1706710;83;20179;-66
2022/03/05 03:15:20;;;;;;;;;;;;;;;-1.44;79.91;99235.91;1723432;81;20190;-65
2022/03/05 03:17:48;;;;;;;;;;;;;;;-1.44;79.65;99235.91;1773327;80;21234;-69
2022/03/05 03:20:22;;;;;;;;;;;;;;;-1.46;79.52;99240.72;1776954;79;20140;-65
2022/03/05 03:22:49;;;;;;;;;;;;;;;-1.47;79.68;99243.66;1777007;80;20474;-65
2022/03/05 03:25:16;;;;;;;;;;;;;;;-1.49;79.65;99249.28;1776919;80;20142;-66
2022/03/05 03:27:43;;;;;;;;;;;;;;;-1.49;79.57;99243.09;1776915;80;20192;-66
2022/03/05 03:30:12;;;;;;;;;;;;;;;-1.49;79.73;99251.98;1776960;80;21162;-65
2022/03/05 03:32:39;;;;;;;;;;;;;;;-1.49;79.76;99246.59;1776882;80;20116;-65
2022/03/05 03:35:07;;;;;;;;;;;;;;;-1.48;80.35;99251.45;1776982;80;20149;-70
2022/03/05 03:37:35;;;;;;;;;;;;;;;-1.48;79.63;99246.06;1777007;80;20651;-72
2022/03/05 03:40:04;;;;;;;;;;;;;;;-1.51;79.27;99247.37;1777031;80;20180;-66
2022/03/05 03:42:31;;;;;;;;;;;;;;;-1.50;79.32;99256.27;1777225;80;21124;-67
2022/03/05 03:44:58;;;;;;;;;;;;;;;-1.49;79.29;99254.67;1776921;80;20097;-64
2022/03/05 03:47:25;;;;;;;;;;;;;;;-1.49;79.15;99259.23;1777271;80;20124;-65
2022/03/05 03:49:52;;;;;;;;;;;;;;;-1.48;79.45;99265.73;1776704;79;20167;-64
2022/03/05 03:52:19;;;;;;;;;;;;;;;-1.47;79.34;99262.50;1776687;80;20447;-65
2022/03/05 03:54:46;;;;;;;;;;;;;;;-1.47;79.66;99274.09;1777121;80;21092;-64
2022/03/05 03:57:13;;;;;;;;;;;;;;;-1.46;79.83;99277.06;1776806;80;20128;-65
2022/03/05 03:59:40;;;;;;;;;;;;;;;-1.48;79.64;99277.84;1776994;80;20172;-65
2022/03/05 04:02:08;;;;;;;;;;;;;;;-1.50;79.73;99281.31;1777332;80;20741;-64
2022/03/05 04:04:35;;;;;;;;;;;;;;;-1.52;79.65;99286.65;1776970;80;20192;-65
2022/03/05 04:09:48;;;;;;;;;;;;;;;-1.56;79.54;99289.01;1776877;80;20120;-64
2022/03/05 04:12:15;;;;;;;;;;;;;;;-1.56;79.73;99290.88;1777008;79;20128;-65
2022/03/05 04:14:42;;;;;;;;;;;;;;;-1.56;79.91;99287.66;1775527;79;20172;-64
2022/03/05 04:17:11;;;;;;;;;;;;;;;-1.57;79.73;99294.11;1697272;84;20119;-65
2022/03/05 04:22:24;;;;;;;;;;;;;;;-1.59;79.93;99301.61;1787256;79;20457;-64
2022/03/05 04:24:51;;;;;;;;;;;;;;;-1.58;79.97;99305.11;1817869;79;20498;-65
2022/03/05 04:27:18;;;;;;;;;;;;;;;-1.57;79.98;99298.67;1784670;80;20158;-64
2022/03/05 04:29:45;;;;;;;;;;;;;;;-1.57;79.69;99305.41;1784671;79;20177;-65
2022/03/05 04:32:12;;;;;;;;;;;;;;;-1.58;80.19;99304.59;1784593;80;21233;-68
2022/03/05 04:34:38;;;;;;;;;;;;;;;-1.57;80.19;99312.95;1784584;80;20067;-67
2022/03/05 04:37:06;;;;;;;;;;;;;;;-1.57;79.88;99311.61;1784626;80;20082;-67
2022/03/05 04:39:33;;;;;;;;;;;;;;;-1.59;79.96;99311.03;1784570;80;20576;-68
2022/03/05 04:42:00;;;;;;;;;;;;;;;-1.59;79.75;99313.72;1817860;79;20165;-68
2022/03/05 04:44:29;;;;;;;;;;;;;;;-1.59;79.91;99314.25;1771644;79;20510;-67
2022/03/05 04:46:56;;;;;;;;;;;;;;;-1.57;79.98;99309.44;1804997;79;20079;-67
2022/03/05 04:49:23;;;;;;;;;;;;;;;-1.58;79.72;99311.31;1805132;79;20202;-66
2022/03/05 04:51:50;;;;;;;;;;;;;;;-1.60;79.58;99313.97;1805127;79;20134;-66
2022/03/05 04:54:17;;;;;;;;;;;;;;;-1.60;80.05;99315.31;1805535;79;20602;-65
2022/03/05 04:56:43;;;;;;;;;;;;;;;-1.56;80.04;99324.53;1805171;79;21771;-65
2022/03/05 04:59:10;;;;;;;;;;;;;;;-1.55;79.89;99329.67;1805291;79;20213;-65
2022/03/05 05:01:38;;;;;;;;;;;;;;;-1.53;79.87;99332.95;1805176;79;20176;-65
2022/03/05 05:04:05;;;;;;;;;;;;;;;-1.54;79.77;99335.34;1805277;79;20160;-64
2022/03/05 05:06:31;;;;;;;;;;;;;;;-1.53;79.90;99338.33;1805139;79;20197;-65
2022/03/05 05:08:59;;;;;;;;;;;;;;;-1.52;79.98;99342.66;1805309;79;21749;-65
2022/03/05 05:11:26;;;;;;;;;;;;;;;-1.48;80.02;99349.72;1804909;79;20082;-65
2022/03/05 05:13:53;;;;;;;;;;;;;;;-1.45;80.26;99347.89;1781529;79;20200;-64
2022/03/05 05:16:20;;;;;;;;;;;;;;;-1.41;80.49;99353.89;1773235;79;20169;-64
2022/03/05 05:21:35;;;;;;;;;;;;;;;-1.37;80.32;99360.43;1772869;81;20511;-63
2022/03/05 05:24:02;;;;;;;;;;;;;;;-1.36;80.34;99366.63;1772425;81;20137;-63
2022/03/05 05:26:30;;;;;;;;;;;;;;;-1.36;80.49;99367.45;1760556;81;20160;-64
2022/03/05 05:28:57;;;;;;;;;;;;;;;-1.35;80.57;99370.43;1764284;81;20717;-65
2022/03/05 05:31:24;;;;;;;;;;;;;;;-1.36;80.63;99370.67;1764093;81;20472;-64
2022/03/05 05:33:51;;;;;;;;;;;;;;;-1.37;80.86;99372.55;1764268;81;21238;-64
2022/03/05 05:36:18;;;;;;;;;;;;;;;-1.36;81.15;99375.53;1763819;81;20195;-65
2022/03/05 05:38:45;;;;;;;;;;;;;;;-1.38;80.56;99374.14;1764087;81;20186;-65
2022/03/05 05:41:12;;;;;;;;;;;;;;;-1.41;80.67;99374.09;1763973;80;20139;-65
2022/03/05 05:43:39;;;;;;;;;;;;;;;-1.42;80.74;99375.15;1764015;81;20174;-65
2022/03/05 05:46:06;;;;;;;;;;;;;;;-1.42;80.76;99381.88;1764216;81;21141;-65
2022/03/05 05:48:33;;;;;;;;;;;;;;;-1.43;80.93;99385.63;1765068;81;20145;-65
2022/03/05 05:51:00;;;;;;;;;;;;;;;-1.42;80.93;99389.14;1764399;81;20109;-70
2022/03/05 05:53:29;;;;;;;;;;;;;;;-1.41;81.30;99387.55;1764573;80;20118;-71
2022/03/05 05:55:56;;;;;;;;;;;;;;;-1.38;81.61;99392.45;1765075;80;20171;-75
2022/03/05 05:58:23;;;;;;;;;;;;;;;-1.35;81.55;99396.02;1765137;80;21244;-73
2022/03/05 06:00:50;;;;;;;;;;;;;;;-1.33;81.52;99399.81;1765199;81;20162;-62
2022/03/05 06:03:17;;;;;;;;;;;;;;;-1.32;81.35;99397.94;1765032;81;20138;-62
2022/03/05 06:05:43;;;;;;;;;;;;;;;-1.31;81.42;99394.19;1763332;81;20263;-62
2022/03/05 06:08:10;;;;;;;;;;;;;;;-1.30;81.47;99398.52;1765235;81;20143;-62
2022/03/05 06:10:38;;;;;;;;;;;;;;;-1.30;81.42;99405.24;1765134;81;21133;-62
2022/03/05 06:13:06;;;;;;;;;;;;;;;-1.28;81.71;99405.82;1764931;81;20129;-62
2022/03/05 06:15:34;;;;;;;;;;;;;;;-1.27;81.90;99407.45;1751769;80;20128;-62
2022/03/05 06:18:02;;;;;;;;;;;;;;;-1.26;81.81;99411.78;1733224;81;20168;-67
2022/03/05 06:20:30;;;;;;;;;;;;;;;-1.24;81.92;99413.17;1733360;83;20176;-60
2022/03/05 06:22:57;;;;;;;;;;;;;;;-1.21;81.94;99413.22;1733182;83;21209;-59
2022/03/05 06:25:24;;;;;;;;;;;;;;;-1.18;81.57;99414.09;1733161;83;20163;-60
2022/03/05 06:27:51;;;;;;;;;;;;;;;-1.19;81.61;99417.84;1732586;83;20170;-59
2022/03/05 06:30:18;;;;;;;;;;;;;;;-1.21;81.75;99422.65;1733090;81;20153;-60
2022/03/05 06:32:45;;;;;;;;;;;;;;;-1.22;82.15;99421.83;1733263;83;20176;-60
2022/03/05 06:35:13;;;;;;;;;;;;;;;-1.21;82.35;99422.12;1733354;83;21244;-60
2022/03/05 06:37:40;;;;;;;;;;;;;;;-1.18;82.08;99428.38;1733112;83;20487;-60
2022/03/05 06:40:10;;;;;;;;;;;;;;;-1.17;81.88;99432.70;1733560;82;20148;-63
2022/03/05 06:42:37;;;;;;;;;;;;;;;-1.17;81.81;99431.35;1733277;83;20165;-68
2022/03/05 06:45:05;;;;;;;;;;;;;;;-1.17;81.60;99433.23;1726684;81;20202;-68
2022/03/05 06:47:34;;;;;;;;;;;;;;;-1.21;81.68;99434.24;1703317;83;21159;-68
2022/03/05 06:50:01;;;;;;;;;;;;;;;-1.21;81.71;99432.08;1725903;83;20472;-67
2022/03/05 06:52:28;;;;;;;;;;;;;;;-1.20;81.87;99435.05;1725843;83;20094;-68
2022/03/05 06:54:55;;;;;;;;;;;;;;;-1.18;81.87;99438.33;1725916;83;20191;-69
2022/03/05 06:57:22;;;;;;;;;;;;;;;-1.18;81.58;99439.67;1726201;82;20142;-68
2022/03/05 06:59:49;;;;;;;;;;;;;;;-1.18;81.58;99440.49;1725827;82;21260;-67
2022/03/05 07:02:16;;;;;;;;;;;;;;;-1.17;81.47;99439.96;1726117;83;20202;-61
2022/03/05 07:04:43;;;;;;;;;;;;;;;-1.15;81.40;99454.80;1725856;83;20157;-63
2022/03/05 07:07:10;;;;;;;;;;;;;;;-1.14;81.37;99454.27;1725938;83;20424;-61
2022/03/05 07:09:38;;;;;;;;;;;;;;;-1.15;81.51;99449.94;1725842;82;20101;-61
2022/03/05 07:12:07;;;;;;;;;;;;;;;-1.14;81.65;99453.73;1725895;83;21148;-61
2022/03/05 07:14:36;;;;;;;;;;;;;;;-1.10;81.82;99455.41;1726059;80;20129;-62
2022/03/05 07:17:04;;;;;;;;;;;;;;;-1.06;81.53;99463.30;1757870;80;20206;-61
2022/03/05 07:19:31;;;;;;;;;;;;;;;-1.04;81.12;99462.53;1757486;81;20492;-65
2022/03/05 07:21:58;;;;;;;;;;;;;;;-1.04;81.15;99461.19;1757734;81;20538;-65
2022/03/05 07:24:25;;;;;;;;;;;;;;;-1.03;80.95;99458.78;1757474;81;21133;-66
2022/03/05 07:26:52;;;;;;;;;;;;;;;-1.01;80.90;99468.78;1757520;81;20095;-66
2022/03/05 07:29:19;;;;;;;;;;;;;;;-1.02;80.59;99462.58;1757542;81;20169;-65
2022/03/05 07:31:45;;;;;;;;;;;;;;;-1.00;80.71;99469.08;1757713;81;20170;-64
2022/03/05 07:34:12;;;;;;;;;;;;;;;-0.95;82.58;99469.17;1757625;80;20167;-64
2022/03/05 07:36:39;;;;;;;;;;;;;;;-0.89;81.03;99469.55;1757881;81;21104;-68
2022/03/05 07:39:07;;;;;;;;;;;;;;;-0.88;80.64;99472.53;1757424;81;20083;-67
2022/03/05 07:41:36;;;;;;;;;;;;;;;-0.88;79.89;99469.02;1757421;81;33262;-68
2022/03/05 07:44:05;;;;;;;;;;;;;;;-0.87;79.51;99471.47;1757353;81;20187;-68
2022/03/05 07:46:33;;;;;;;;;;;;;;;-0.85;79.04;99469.88;1757655;81;20131;-69
2022/03/05 07:49:00;;;;;;;;;;;;;;;-0.85;79.18;99466.66;1757613;81;21233;-69
2022/03/05 07:51:27;;;;;;;;;;;;;;;-0.82;79.02;99470.20;1757269;81;20142;-70
2022/03/05 07:53:53;;;;;;;;;;;;;;;-0.80;79.18;99477.52;1757658;80;20198;-80
2022/03/05 07:56:20;;;;;;;;;;;;;;;-0.77;78.75;99476.22;1757443;81;20372;-76
2022/03/05 07:58:48;;;;;;;;;;;;;;;-0.75;78.47;99473.56;1757859;81;20210;-69
2022/03/05 08:01:16;;;;;;;;;;;;;;;-0.72;77.98;99481.70;1757685;80;21112;-73
2022/03/05 08:03:43;;;;;;;;;;;;;;;-0.73;77.70;99479.53;1757806;81;20126;-71
2022/03/05 08:06:10;;;;;;;;;;;;;;;-0.72;77.41;99484.39;1758347;81;20103;-73
2022/03/05 08:08:38;;;;;;;;;;;;;;;-0.71;76.70;99488.19;1756679;81;20647;-61
2022/03/05 08:11:05;;;;;;;;;;;;;;;-0.70;76.95;99483.63;1753255;82;20091;-61
2022/03/05 08:13:32;;;;;;;;;;;;;;;-0.68;77.13;99481.50;1753101;80;21303;-61
2022/03/05 08:15:59;;;;;;;;;;;;;;;-0.64;77.14;99482.64;1756169;80;20409;-61
2022/03/05 08:18:26;;;;;;;;;;;;;;;-0.59;76.85;99476.52;1758896;81;20413;-61
2022/03/05 08:20:53;;;;;;;;;;;;;;;-0.57;75.75;99477.06;1758667;81;20118;-61
2022/03/05 08:23:20;;;;;;;;;;;;;;;-0.55;75.87;99480.33;1758965;81;20110;-61
2022/03/05 08:25:47;;;;;;;;;;;;;;;-0.52;76.01;99484.70;1758764;81;21138;-61
2022/03/05 08:28:17;;;;;;;;;;;;;;;-0.52;75.91;99482.01;1758875;81;20146;-60
2022/03/05 08:30:43;;;;;;;;;;;;;;;-0.49;75.90;99484.22;1758795;81;20139;-60
2022/03/05 08:33:09;;;;;;;;;;;;;;;-0.45;76.29;99486.71;1758896;81;20067;-61
2022/03/05 08:35:36;;;;;;;;;;;;;;;-0.41;76.09;99485.69;1758739;81;20071;-61
2022/03/05 08:38:04;;;;;;;;;;;;;;;-0.41;76.38;99490.55;1758769;81;21130;-60
2022/03/05 08:40:31;;;;;;;;;;;;;;;-0.38;76.27;99490.06;1757642;81;20071;-61
2022/03/05 08:42:57;;;;;;;;;;;;;;;-0.36;76.12;99489.28;1757296;81;20151;-61
2022/03/05 08:45:26;;;;;;;;;;;;;;;-0.35;75.45;99491.45;1762548;81;20206;-62
2022/03/05 08:47:53;;;;;;;;;;;;;;;-0.38;75.54;99495.98;1764620;80;20094;-62
2022/03/05 08:50:20;;;;;;;;;;;;;;;-0.39;75.75;99501.09;1764546;81;21242;-61
2022/03/05 08:52:47;;;;;;;;;;;;;;;-0.39;76.53;99498.40;1764853;81;20082;-61
2022/03/05 08:55:19;;;;;;;;;;;;;;;-0.36;76.61;99498.73;1764919;81;20185;-62
2022/03/05 08:57:44;;;;;;;;;;;;;;;-0.32;76.28;99506.33;1764317;81;20469;-61
2022/03/05 09:00:13;;;;;;;;;;;;;;;-0.29;75.46;99503.95;1765032;81;20074;-61
2022/03/05 09:02:43;;;;;;;;;;;;;;;-0.27;75.54;99505.87;1764336;81;21901;-61
2022/03/05 09:05:11;;;;;;;;;;;;;;;-0.24;75.38;99506.73;1764687;80;20099;-62
2022/03/05 09:07:37;;;;;;;;;;;;;;;-0.20;74.40;99513.27;1764371;81;20149;-62
2022/03/05 09:10:06;;;;;;;;;;;;;;;-0.18;74.77;99507.10;1760885;81;20177;-62
2022/03/05 09:12:34;;;;;;;;;;;;;;;-0.13;74.98;99511.76;1764379;81;20449;-61
2022/03/05 09:15:02;;;;;;;;;;;;;;;-0.10;74.92;99514.78;1764603;80;21831;-62
2022/03/05 09:17:29;;;;;;;;;;;;;;;-0.11;74.44;99505.05;1764568;81;20151;-62
2022/03/05 09:19:55;;;;;;;;;;;;;;;-0.13;74.31;99525.25;1764678;81;20132;-62
2022/03/05 09:22:24;;;;;;;;;;;;;;;-0.16;73.85;99522.52;1764589;81;20174;-62
2022/03/05 09:24:51;;;;;;;;;;;;;;;-0.18;73.88;99523.30;1764934;81;20114;-61
2022/03/05 09:27:17;;;;;;;;;;;;;;;-0.21;73.96;99527.83;1764515;81;21222;-61
2022/03/05 09:29:45;;;;;;;;;;;;;;;-0.20;73.94;99530.00;1760614;81;20126;-61
2022/03/05 09:32:13;;;;;;;;;;;;;;;-0.14;74.17;99531.71;1764516;81;20115;-61
2022/03/05 09:34:40;;;;;;;;;;;;;;;-0.07;74.37;99528.31;1764502;81;20201;-62
2022/03/05 09:37:07;;;;;;;;;;;;;;;-0.02;73.97;99531.91;1765837;80;20122;-61
2022/03/05 09:39:36;;;;;;;;;;;;;;;0.01;73.65;99530.56;1766081;81;21082;-66
2022/03/05 09:42:04;;;;;;;;;;;;;;;0.02;73.65;99533.55;1766204;81;20088;-66
2022/03/05 09:44:32;;;;;;;;;;;;;;;0.07;73.53;99534.16;1765929;81;20079;-68
2022/03/05 09:47:00;;;;;;;;;;;;;;;0.12;73.41;99526.14;1764903;81;20968;-67
2022/03/05 09:49:28;;;;;;;;;;;;;;;0.17;73.20;99531.08;1764771;80;20402;-67
2022/03/05 09:51:55;;;;;;;;;;;;;;;0.21;73.01;99536.80;1764527;81;21081;-66
2022/03/05 09:54:23;;;;;;;;;;;;;;;0.20;72.68;99541.91;1764475;81;20107;-66
2022/03/05 09:56:52;;;;;;;;;;;;;;;0.19;72.58;99547.03;1764568;81;20433;-69
2022/03/05 09:59:18;;;;;;;;;;;;;;;0.19;72.86;99551.89;1764608;81;20114;-72
2022/03/05 10:01:45;;;;;;;;;;;;;;;0.18;72.22;99544.86;1764967;81;20455;-71
2022/03/05 10:04:23;;;;;;;;;;;;;;;0.14;72.38;99542.91;1764617;80;21459;-74
2022/03/05 10:07:10;;;;;;;;;;;;;;;0.12;71.69;99535.58;1764490;80;20465;-75
2022/03/05 10:09:37;;;;;;;;;;;;;;;0.08;71.84;99539.31;1764565;81;20079;-78
2022/03/05 10:12:23;;;;;;;;;;;;;;;0.10;72.46;99536.37;1764582;81;20115;-79
2022/03/05 10:15:10;;;;;;;;;;;;;;;0.12;72.09;99540.98;1760953;81;20098;-80
2022/03/05 10:17:57;;;;;;;;;;;;;;;0.13;72.03;99536.69;1732676;82;20092;-79
2022/03/05 10:20:34;;;;;;;;;;;;;;;0.17;71.20;99548.63;1732221;81;20566;-85
2022/03/05 10:23:04;;;;;;;;;;;;;;;0.26;71.09;99546.33;1732876;81;20073;-68
2022/03/05 10:25:35;;;;;;;;;;;;;;;0.38;71.05;99548.39;1732688;83;20092;-66
2022/03/05 10:28:17;;;;;;;;;;;;;;;0.54;71.57;99552.93;1732880;83;20081;-66
2022/03/05 10:30:46;;;;;;;;;;;;;;;0.68;71.34;99545.78;1732710;82;21272;-65
2022/03/05 10:33:28;;;;;;;;;;;;;;;0.78;70.31;99551.31;1732539;82;20081;-65
2022/03/05 10:35:56;;;;;;;;;;;;;;;0.76;70.04;99551.56;1732835;83;20109;-68
2022/03/05 10:38:25;;;;;;;;;;;;;;;0.76;69.68;99543.99;1732875;83;20419;-65
2022/03/05 10:40:56;;;;;;;;;;;;;;;0.78;69.15;99549.97;1732622;83;20097;-66
2022/03/05 10:43:23;;;;;;;;;;;;;;;0.79;69.11;99542.14;1732624;83;21206;-66
2022/03/05 10:45:52;;;;;;;;;;;;;;;0.81;68.69;99540.00;1719795;82;20106;-65
2022/03/05 10:48:30;;;;;;;;;;;;;;;0.84;68.52;99544.37;1712109;84;20445;-65
2022/03/05 10:51:04;;;;;;;;;;;;;;;0.86;68.87;99544.12;1711890;84;20142;-66
2022/03/05 10:53:39;;;;;;;;;;;;;;;0.90;69.01;99546.59;1711991;83;20130;-64
2022/03/05 10:56:28;;;;;;;;;;;;;;;0.91;68.54;99545.53;1711169;83;21161;-69
2022/03/05 10:59:09;;;;;;;;;;;;;;;0.95;68.54;99548.83;1711999;84;20495;-67
2022/03/05 11:01:41;;;;;;;;;;;;;;;0.94;67.34;99542.32;1711949;83;20180;-68
2022/03/05 11:04:09;;;;;;;;;;;;;;;0.93;66.79;99542.04;1712325;84;20113;-61
2022/03/05 11:06:38;;;;;;;;;;;;;;;0.90;66.39;99541.19;1712170;84;20113;-68
2022/03/05 11:09:06;;;;;;;;;;;;;;;0.86;66.51;99550.87;1712294;84;21145;-61
2022/03/05 11:11:40;;;;;;;;;;;;;;;0.81;67.01;99551.63;1711695;83;20445;-67
2022/03/05 11:14:13;;;;;;;;;;;;;;;0.78;67.81;99552.66;1712066;84;20448;-61
2022/03/05 11:16:42;;;;;;;;;;;;;;;0.78;68.00;99552.66;1711878;82;20130;-60
2022/03/05 11:19:08;;;;;;;;;;;;;;;0.84;67.91;99551.66;1712048;84;20150;-60
2022/03/05 11:21:36;;;;;;;;;;;;;;;0.88;67.58;99552.79;1712059;83;20982;-60
2022/03/05 11:24:05;;;;;;;;;;;;;;;0.84;66.97;99547.61;1711886;84;20113;-68
2022/03/05 11:26:31;;;;;;;;;;;;;;;0.77;66.67;99542.39;1711954;84;20126;-70
2022/03/05 11:28:57;;;;;;;;;;;;;;;0.75;66.70;99548.58;1712022;83;20113;-70
2022/03/05 11:31:30;;;;;;;;;;;;;;;0.72;66.62;99546.91;1712160;84;20134;-69
2022/03/05 11:34:15;;;;;;;;;;;;;;;0.68;67.39;99545.25;1711775;84;21802;-73
2022/03/05 11:36:41;;;;;;;;;;;;;;;0.68;67.17;99545.78;1712359;84;20126;-71
2022/03/05 11:39:17;;;;;;;;;;;;;;;0.70;66.90;99540.41;1712289;84;20449;-73
2022/03/05 11:41:49;;;;;;;;;;;;;;;0.71;67.06;99547.98;1712191;83;20125;-73
2022/03/05 11:44:16;;;;;;;;;;;;;;;0.64;67.03;99545.47;1712243;83;20205;-72
2022/03/05 11:46:43;;;;;;;;;;;;;;;0.63;67.52;99543.30;1712006;83;21065;-72
2022/03/05 11:49:11;;;;;;;;;;;;;;;0.65;67.15;99545.22;1712067;84;20468;-71
2022/03/05 11:51:56;;;;;;;;;;;;;;;0.63;67.06;99543.30;1712424;83;20184;-67
2022/03/05 11:54:23;;;;;;;;;;;;;;;0.58;66.92;99541.88;1712172;83;20167;-68
2022/03/05 11:57:08;;;;;;;;;;;;;;;0.54;67.03;99545.36;1712142;83;20130;-59
2022/03/05 11:59:39;;;;;;;;;;;;;;;0.53;67.28;99545.89;1712138;84;21717;-60
2022/03/05 12:02:06;;;;;;;;;;;;;;;0.56;67.80;99552.68;1716081;82;20106;-60
2022/03/05 12:04:32;;;;;;;;;;;;;;;0.60;68.19;99555.14;1745502;81;20071;-59
2022/03/05 12:07:03;;;;;;;;;;;;;;;0.64;68.29;99549.52;1736848;81;20120;-62
2022/03/05 12:09:53;;;;;;;;;;;;;;;0.70;67.92;99555.80;1719774;82;20425;-60
2022/03/05 12:12:20;;;;;;;;;;;;;;;0.68;69.12;99561.99;1715746;83;21085;-60
2022/03/05 12:15:06;;;;;;;;;;;;;;;0.69;69.18;99561.74;1733891;82;20099;-60
2022/03/05 12:17:40;;;;;;;;;;;;;;;0.70;68.89;99551.75;1740403;82;20203;-60
2022/03/05 12:20:10;;;;;;;;;;;;;;;0.71;68.84;99560.14;1713494;83;20107;-59
2022/03/05 12:22:36;;;;;;;;;;;;;;;0.63;68.31;99558.69;1712413;83;20120;-61
2022/03/05 12:28:31;;;;;;;;;;;;;;;0.46;69.22;99572.27;1740808;82;20115;-61
2022/03/05 12:30:58;;;;;;;;;;;;;;;0.41;70.34;99568.68;1743487;81;20199;-61
2022/03/05 12:33:27;;;;;;;;;;;;;;;0.42;70.89;99572.48;1741526;82;20401;-61
2022/03/05 12:35:54;;;;;;;;;;;;;;;0.42;70.74;99569.78;1743851;82;20119;-60
2022/03/05 12:38:21;;;;;;;;;;;;;;;0.41;70.74;99572.20;1744029;82;21177;-60
2022/03/05 12:40:47;;;;;;;;;;;;;;;0.41;70.79;99574.89;1743705;82;20196;-61
2022/03/05 12:43:13;;;;;;;;;;;;;;;0.42;70.88;99577.06;1743362;82;20213;-62
2022/03/05 12:45:41;;;;;;;;;;;;;;;0.45;70.90;99569.28;1747834;80;20122;-63
2022/03/05 12:48:12;;;;;;;;;;;;;;;0.48;70.43;99569.32;1761493;81;20099;-63
2022/03/05 12:50:40;;;;;;;;;;;;;;;0.49;70.90;99577.17;1761390;81;21120;-63
2022/03/05 12:53:10;;;;;;;;;;;;;;;0.52;71.69;99573.97;1761897;81;21594;-63
2022/03/05 12:55:45;;;;;;;;;;;;;;;0.57;71.27;99578.09;1763074;81;20166;-63
2022/03/05 12:58:15;;;;;;;;;;;;;;;0.58;71.28;99581.05;1762494;81;20122;-63
2022/03/05 13:00:45;;;;;;;;;;;;;;;0.58;70.54;99579.70;1733078;81;20118;-63
2022/03/05 13:03:12;;;;;;;;;;;;;;;0.54;71.04;99581.30;1762882;81;23248;-62
2022/03/05 13:05:40;;;;;;;;;;;;;;;0.51;70.67;99586.38;1763150;81;20122;-63
2022/03/05 13:08:06;;;;;;;;;;;;;;;0.43;70.65;99579.52;1762950;81;20413;-66